sensor_id;sensor_type;location;lat;lon;timestamp;temperature;humidity
70550;DHT22;58101;48.658;2.328;2023-04-01T00:00:24;10.40;99.90
70550;DHT22;58101;48.658;2.328;2023-04-01T00:02:50;10.30;99.90
70550;DHT22;58101;48.658;2.328;2023-04-01T00:05:15;10.40;99.90
70550;DHT22;58101;48.658;2.328;2023-04-01T00:07:42;10.40;99.90
70550;DHT22;58101;48.658;2.328;2023-04-01T00:10:10;10.40;99.90
70550;DHT22;58101;48.658;2.328;2023-04-01T00:12:37;10.40;99.90
70550;DHT22;58101;48.658;2.328;2023-04-01T00:15:07;10.20;99.90
70550;DHT22;58101;48.658;2.328;2023-04-01T00:17:33;10.20;99.90
70550;DHT22;58101;48.658;2.328;2023-04-01T00:19:59;10.10;99.90
70550;DHT22;58101;48.658;2.328;2023-04-01T00:22:26;10.20;99.90
70550;DHT22;58101;48.658;2.328;2023-04-01T00:24:52;10.10;99.90
70550;DHT22;58101;48.658;2.328;2023-04-01T00:27:18;10.10;99.90
70550;DHT22;58101;48.658;2.328;2023-04-01T00:29:45;10.00;99.90
70550;DHT22;58101;48.658;2.328;2023-04-01T00:32:11;10.00;99.90
70550;DHT22;58101;48.658;2.328;2023-04-01T00:34:36;10.00;99.90
70550;DHT22;58101;48.658;2.328;2023-04-01T00:37:03;10.10;99.90
70550;DHT22;58101;48.658;2.328;2023-04-01T00:39:30;10.00;99.90
70550;DHT22;58101;48.658;2.328;2023-04-01T00:41:55;10.10;99.90
70550;DHT22;58101;48.658;2.328;2023-04-01T00:44:28;10.00;99.90
70550;DHT22;58101;48.658;2.328;2023-04-01T00:46:53;10.10;99.90
70550;DHT22;58101;48.658;2.328;2023-04-01T00:49:22;10.00;99.90
70550;DHT22;58101;48.658;2.328;2023-04-01T00:51:53;10.10;99.90
70550;DHT22;58101;48.658;2.328;2023-04-01T00:54:21;10.20;99.90
70550;DHT22;58101;48.658;2.328;2023-04-01T00:59:25;10.10;99.90
70550;DHT22;58101;48.658;2.328;2023-04-01T01:01:52;10.10;99.90
70550;DHT22;58101;48.658;2.328;2023-04-01T01:04:28;10.10;99.90
70550;DHT22;58101;48.658;2.328;2023-04-01T01:09:55;10.10;99.90
70550;DHT22;58101;48.658;2.328;2023-04-01T01:37:15;10.20;99.90
70550;DHT22;58101;48.658;2.328;2023-04-01T01:39:44;10.30;99.90
70550;DHT22;58101;48.658;2.328;2023-04-01T01:42:13;10.30;99.90
70550;DHT22;58101;48.658;2.328;2023-04-01T01:44:41;10.20;99.90
70550;DHT22;58101;48.658;2.328;2023-04-01T01:47:09;10.20;99.90
70550;DHT22;58101;48.658;2.328;2023-04-01T01:49:36;10.10;99.90
70550;DHT22;58101;48.658;2.328;2023-04-01T01:52:02;10.10;99.90
70550;DHT22;58101;48.658;2.328;2023-04-01T01:54:29;10.10;99.90
70550;DHT22;58101;48.658;2.328;2023-04-01T01:57:08;10.10;99.90
70550;DHT22;58101;48.658;2.328;2023-04-01T01:59:35;10.10;99.90
70550;DHT22;58101;48.658;2.328;2023-04-01T02:02:02;10.10;99.90
70550;DHT22;58101;48.658;2.328;2023-04-01T02:04:34;10.10;99.90
70550;DHT22;58101;48.658;2.328;2023-04-01T02:07:08;10.20;99.90
70550;DHT22;58101;48.658;2.328;2023-04-01T02:09:36;10.10;99.90
70550;DHT22;58101;48.658;2.328;2023-04-01T02:12:10;10.20;99.90
70550;DHT22;58101;48.658;2.328;2023-04-01T02:15:16;10.20;99.90
70550;DHT22;58101;48.658;2.328;2023-04-01T02:17:38;10.20;99.90
70550;DHT22;58101;48.658;2.328;2023-04-01T02:20:06;10.30;99.90
70550;DHT22;58101;48.658;2.328;2023-04-01T02:22:38;10.30;99.90
70550;DHT22;58101;48.658;2.328;2023-04-01T02:25:12;10.40;99.90
70550;DHT22;58101;48.658;2.328;2023-04-01T02:27:39;10.30;99.90
70550;DHT22;58101;48.658;2.328;2023-04-01T02:30:06;10.50;99.90
70550;DHT22;58101;48.658;2.328;2023-04-01T02:32:33;10.40;99.90
70550;DHT22;58101;48.658;2.328;2023-04-01T02:35:00;10.50;99.90
70550;DHT22;58101;48.658;2.328;2023-04-01T02:37:28;10.50;99.90
70550;DHT22;58101;48.658;2.328;2023-04-01T02:39:58;10.50;99.90
70550;DHT22;58101;48.658;2.328;2023-04-01T02:42:24;10.40;99.90
70550;DHT22;58101;48.658;2.328;2023-04-01T02:44:49;10.50;99.90
70550;DHT22;58101;48.658;2.328;2023-04-01T02:47:15;10.50;99.90
70550;DHT22;58101;48.658;2.328;2023-04-01T02:49:40;10.50;99.90
70550;DHT22;58101;48.658;2.328;2023-04-01T02:52:07;10.50;99.90
70550;DHT22;58101;48.658;2.328;2023-04-01T02:54:32;10.50;99.90
70550;DHT22;58101;48.658;2.328;2023-04-01T02:56:58;10.50;99.90
70550;DHT22;58101;48.658;2.328;2023-04-01T02:59:23;10.50;99.90
70550;DHT22;58101;48.658;2.328;2023-04-01T03:01:49;10.40;99.90
70550;DHT22;58101;48.658;2.328;2023-04-01T03:04:15;10.40;99.90
70550;DHT22;58101;48.658;2.328;2023-04-01T03:06:40;10.40;99.90
70550;DHT22;58101;48.658;2.328;2023-04-01T03:09:06;10.40;99.90
70550;DHT22;58101;48.658;2.328;2023-04-01T03:11:32;10.40;99.90
70550;DHT22;58101;48.658;2.328;2023-04-01T03:13:57;10.40;99.90
70550;DHT22;58101;48.658;2.328;2023-04-01T03:16:23;10.40;99.90
70550;DHT22;58101;48.658;2.328;2023-04-01T03:18:48;10.40;99.90
70550;DHT22;58101;48.658;2.328;2023-04-01T03:21:16;10.40;99.90
70550;DHT22;58101;48.658;2.328;2023-04-01T03:23:42;10.40;99.90
70550;DHT22;58101;48.658;2.328;2023-04-01T03:26:08;10.40;99.90
70550;DHT22;58101;48.658;2.328;2023-04-01T03:28:33;10.40;99.90
70550;DHT22;58101;48.658;2.328;2023-04-01T03:30:59;10.40;99.90
70550;DHT22;58101;48.658;2.328;2023-04-01T03:33:25;10.40;99.90
70550;DHT22;58101;48.658;2.328;2023-04-01T03:35:50;10.30;99.90
70550;DHT22;58101;48.658;2.328;2023-04-01T03:38:17;10.40;99.90
70550;DHT22;58101;48.658;2.328;2023-04-01T03:40:44;10.40;99.90
70550;DHT22;58101;48.658;2.328;2023-04-01T03:43:10;10.50;99.90
70550;DHT22;58101;48.658;2.328;2023-04-01T03:45:42;10.40;99.90
70550;DHT22;58101;48.658;2.328;2023-04-01T03:48:08;10.40;99.90
70550;DHT22;58101;48.658;2.328;2023-04-01T03:50:34;10.40;99.90
70550;DHT22;58101;48.658;2.328;2023-04-01T03:53:00;10.40;99.90
70550;DHT22;58101;48.658;2.328;2023-04-01T03:55:26;10.40;99.90
70550;DHT22;58101;48.658;2.328;2023-04-01T03:57:51;10.40;99.90
70550;DHT22;58101;48.658;2.328;2023-04-01T04:00:17;10.40;99.90
70550;DHT22;58101;48.658;2.328;2023-04-01T04:02:43;10.40;99.90
70550;DHT22;58101;48.658;2.328;2023-04-01T04:05:08;10.50;99.90
70550;DHT22;58101;48.658;2.328;2023-04-01T04:07:35;10.40;99.90
70550;DHT22;58101;48.658;2.328;2023-04-01T04:10:01;10.50;99.90
70550;DHT22;58101;48.658;2.328;2023-04-01T04:12:26;10.50;99.90
70550;DHT22;58101;48.658;2.328;2023-04-01T04:14:52;10.40;99.90
70550;DHT22;58101;48.658;2.328;2023-04-01T04:17:17;10.40;99.90
70550;DHT22;58101;48.658;2.328;2023-04-01T04:19:43;10.50;99.90
70550;DHT22;58101;48.658;2.328;2023-04-01T04:22:09;10.40;99.90
70550;DHT22;58101;48.658;2.328;2023-04-01T04:24:35;10.50;99.90
70550;DHT22;58101;48.658;2.328;2023-04-01T04:27:01;10.40;99.90
70550;DHT22;58101;48.658;2.328;2023-04-01T04:29:27;10.40;99.90
70550;DHT22;58101;48.658;2.328;2023-04-01T04:31:53;10.40;99.90
70550;DHT22;58101;48.658;2.328;2023-04-01T04:34:18;10.40;99.90
70550;DHT22;58101;48.658;2.328;2023-04-01T04:36:44;10.40;99.90
70550;DHT22;58101;48.658;2.328;2023-04-01T04:39:10;10.40;99.90
70550;DHT22;58101;48.658;2.328;2023-04-01T04:41:37;10.30;99.90
70550;DHT22;58101;48.658;2.328;2023-04-01T04:44:03;10.40;99.90
70550;DHT22;58101;48.658;2.328;2023-04-01T04:46:29;10.40;99.90
70550;DHT22;58101;48.658;2.328;2023-04-01T04:48:55;10.40;99.90
70550;DHT22;58101;48.658;2.328;2023-04-01T04:51:21;10.30;99.90
70550;DHT22;58101;48.658;2.328;2023-04-01T04:53:47;10.30;99.90
70550;DHT22;58101;48.658;2.328;2023-04-01T04:56:13;10.30;99.90
70550;DHT22;58101;48.658;2.328;2023-04-01T04:58:39;10.30;99.90
70550;DHT22;58101;48.658;2.328;2023-04-01T05:01:10;10.30;99.90
70550;DHT22;58101;48.658;2.328;2023-04-01T05:03:36;10.30;99.90
70550;DHT22;58101;48.658;2.328;2023-04-01T05:06:02;10.50;99.90
70550;DHT22;58101;48.658;2.328;2023-04-01T05:08:27;10.30;99.90
70550;DHT22;58101;48.658;2.328;2023-04-01T05:10:53;10.40;99.90
70550;DHT22;58101;48.658;2.328;2023-04-01T05:13:19;10.40;99.90
70550;DHT22;58101;48.658;2.328;2023-04-01T05:15:45;10.30;99.90
70550;DHT22;58101;48.658;2.328;2023-04-01T05:18:10;10.30;99.90
70550;DHT22;58101;48.658;2.328;2023-04-01T05:20:36;10.20;99.90
70550;DHT22;58101;48.658;2.328;2023-04-01T05:23:02;10.20;99.90
70550;DHT22;58101;48.658;2.328;2023-04-01T05:25:28;10.20;99.90
70550;DHT22;58101;48.658;2.328;2023-04-01T05:27:54;10.20;99.90
70550;DHT22;58101;48.658;2.328;2023-04-01T05:30:20;10.20;99.90
70550;DHT22;58101;48.658;2.328;2023-04-01T05:32:46;10.10;99.90
70550;DHT22;58101;48.658;2.328;2023-04-01T05:35:11;10.10;99.90
70550;DHT22;58101;48.658;2.328;2023-04-01T05:37:37;10.10;99.90
70550;DHT22;58101;48.658;2.328;2023-04-01T05:40:04;10.00;99.90
70550;DHT22;58101;48.658;2.328;2023-04-01T05:42:30;10.00;99.90
70550;DHT22;58101;48.658;2.328;2023-04-01T05:44:55;10.00;99.90
70550;DHT22;58101;48.658;2.328;2023-04-01T05:47:22;10.00;99.90
70550;DHT22;58101;48.658;2.328;2023-04-01T05:49:47;10.00;99.90
70550;DHT22;58101;48.658;2.328;2023-04-01T05:52:13;10.00;99.90
70550;DHT22;58101;48.658;2.328;2023-04-01T05:54:39;9.90;99.90
70550;DHT22;58101;48.658;2.328;2023-04-01T05:57:04;10.10;99.90
70550;DHT22;58101;48.658;2.328;2023-04-01T05:59:30;10.10;99.90
70550;DHT22;58101;48.658;2.328;2023-04-01T06:02:00;10.10;99.90
70550;DHT22;58101;48.658;2.328;2023-04-01T06:04:28;10.10;99.90
70550;DHT22;58101;48.658;2.328;2023-04-01T06:06:57;10.20;99.90
70550;DHT22;58101;48.658;2.328;2023-04-01T06:09:30;10.20;99.90
70550;DHT22;58101;48.658;2.328;2023-04-01T06:44:51;10.30;99.90
70550;DHT22;58101;48.658;2.328;2023-04-01T06:47:38;10.30;99.90
70550;DHT22;58101;48.658;2.328;2023-04-01T06:55:42;10.30;99.90
70550;DHT22;58101;48.658;2.328;2023-04-01T06:58:25;10.30;99.90
70550;DHT22;58101;48.658;2.328;2023-04-01T07:00:54;10.30;99.90
70550;DHT22;58101;48.658;2.328;2023-04-01T07:03:29;10.40;99.90
70550;DHT22;58101;48.658;2.328;2023-04-01T07:06:02;10.30;99.90
70550;DHT22;58101;48.658;2.328;2023-04-01T07:08:29;10.30;99.90
70550;DHT22;58101;48.658;2.328;2023-04-01T07:11:01;10.20;99.90
70550;DHT22;58101;48.658;2.328;2023-04-01T07:13:35;10.30;99.90
70550;DHT22;58101;48.658;2.328;2023-04-01T07:16:27;10.30;99.90
70550;DHT22;58101;48.658;2.328;2023-04-01T07:19:02;10.30;99.90
70550;DHT22;58101;48.658;2.328;2023-04-01T07:21:43;10.30;99.90
70550;DHT22;58101;48.658;2.328;2023-04-01T07:24:16;10.30;99.90
70550;DHT22;58101;48.658;2.328;2023-04-01T07:26:43;10.30;99.90
70550;DHT22;58101;48.658;2.328;2023-04-01T07:29:13;10.30;99.90
70550;DHT22;58101;48.658;2.328;2023-04-01T07:34:52;10.30;99.90
70550;DHT22;58101;48.658;2.328;2023-04-01T07:43:36;10.30;99.90
70550;DHT22;58101;48.658;2.328;2023-04-01T07:46:54;10.30;99.90
70550;DHT22;58101;48.658;2.328;2023-04-01T07:52:20;10.50;99.90
70550;DHT22;58101;48.658;2.328;2023-04-01T07:57:41;10.50;99.90
70550;DHT22;58101;48.658;2.328;2023-04-01T08:03:16;10.60;99.90
70550;DHT22;58101;48.658;2.328;2023-04-01T08:08:32;10.90;99.90
70550;DHT22;58101;48.658;2.328;2023-04-01T08:14:00;11.10;99.90
70550;DHT22;58101;48.658;2.328;2023-04-01T08:21:51;11.40;99.90
70550;DHT22;58101;48.658;2.328;2023-04-01T08:26:59;11.60;99.90
70550;DHT22;58101;48.658;2.328;2023-04-01T08:29:41;11.70;99.90
70550;DHT22;58101;48.658;2.328;2023-04-01T08:32:16;11.90;99.90
70550;DHT22;58101;48.658;2.328;2023-04-01T08:34:47;12.00;99.90
70550;DHT22;58101;48.658;2.328;2023-04-01T08:37:30;12.00;99.90
70550;DHT22;58101;48.658;2.328;2023-04-01T08:45:15;12.90;99.90
70550;DHT22;58101;48.658;2.328;2023-04-01T08:50:46;13.30;99.90
70550;DHT22;58101;48.658;2.328;2023-04-01T08:56:14;13.70;99.90
70550;DHT22;58101;48.658;2.328;2023-04-01T09:07:40;13.40;97.60
70550;DHT22;58101;48.658;2.328;2023-04-01T09:13:09;13.20;98.80
70550;DHT22;58101;48.658;2.328;2023-04-01T09:29:25;13.00;99.90
70550;DHT22;58101;48.658;2.328;2023-04-01T09:32:18;13.00;99.90
70550;DHT22;58101;48.658;2.328;2023-04-01T09:40:24;13.00;99.90
70550;DHT22;58101;48.658;2.328;2023-04-01T09:51:27;14.20;93.00
70550;DHT22;58101;48.658;2.328;2023-04-01T09:57:00;14.60;80.90
70550;DHT22;58101;48.658;2.328;2023-04-01T10:10:44;19.50;53.20
70550;DHT22;58101;48.658;2.328;2023-04-01T10:16:30;19.70;48.90
70550;DHT22;58101;48.658;2.328;2023-04-01T10:40:04;18.30;52.70
70550;DHT22;58101;48.658;2.328;2023-04-01T10:51:20;18.20;50.30
70550;DHT22;58101;48.658;2.328;2023-04-01T11:15:26;22.80;38.70
70550;DHT22;58101;48.658;2.328;2023-04-01T11:38:33;23.70;36.30
70550;DHT22;58101;48.658;2.328;2023-04-01T11:41:17;23.50;36.50
70550;DHT22;58101;48.658;2.328;2023-04-01T11:53:02;21.80;41.40
70550;DHT22;58101;48.658;2.328;2023-04-01T11:55:47;22.60;38.90
70550;DHT22;58101;48.658;2.328;2023-04-01T12:01:13;22.30;38.70
70550;DHT22;58101;48.658;2.328;2023-04-01T12:06:32;23.20;39.00
70550;DHT22;58101;48.658;2.328;2023-04-01T12:17:10;22.20;37.30
70550;DHT22;58101;48.658;2.328;2023-04-01T12:28:29;20.10;41.40
70550;DHT22;58101;48.658;2.328;2023-04-01T12:31:17;20.20;45.20
70550;DHT22;58101;48.658;2.328;2023-04-01T12:51:20;20.20;41.20
70550;DHT22;58101;48.658;2.328;2023-04-01T13:11:09;18.70;42.60
70550;DHT22;58101;48.658;2.328;2023-04-01T13:13:46;18.40;43.30
70550;DHT22;58101;48.658;2.328;2023-04-01T13:19:35;18.30;46.90
70550;DHT22;58101;48.658;2.328;2023-04-01T13:25:19;18.40;49.80
70550;DHT22;58101;48.658;2.328;2023-04-01T13:27:50;18.40;48.30
70550;DHT22;58101;48.658;2.328;2023-04-01T13:30:48;18.50;48.40
70550;DHT22;58101;48.658;2.328;2023-04-01T13:33:35;18.60;48.10
70550;DHT22;58101;48.658;2.328;2023-04-01T13:42:05;18.60;47.50
70550;DHT22;58101;48.658;2.328;2023-04-01T13:56:24;18.80;45.10
70550;DHT22;58101;48.658;2.328;2023-04-01T14:01:27;18.40;46.60
70550;DHT22;58101;48.658;2.328;2023-04-01T14:06:55;17.00;52.40
70550;DHT22;58101;48.658;2.328;2023-04-01T14:15:25;17.20;51.30
70550;DHT22;58101;48.658;2.328;2023-04-01T14:21:10;17.00;50.30
70550;DHT22;58101;48.658;2.328;2023-04-01T14:26:26;16.20;54.30
70550;DHT22;58101;48.658;2.328;2023-04-01T14:38:02;15.00;59.50
70550;DHT22;58101;48.658;2.328;2023-04-01T14:52:16;15.60;60.60
70550;DHT22;58101;48.658;2.328;2023-04-01T14:54:48;15.80;58.00
70550;DHT22;58101;48.658;2.328;2023-04-01T14:57:23;15.90;58.30
70550;DHT22;58101;48.658;2.328;2023-04-01T15:23:49;15.30;66.30
70550;DHT22;58101;48.658;2.328;2023-04-01T15:34:28;15.30;70.50
70550;DHT22;58101;48.658;2.328;2023-04-01T15:39:56;15.40;71.30
70550;DHT22;58101;48.658;2.328;2023-04-01T15:42:36;15.50;73.40
70550;DHT22;58101;48.658;2.328;2023-04-01T15:45:07;15.50;70.80
70550;DHT22;58101;48.658;2.328;2023-04-01T15:48:01;15.50;68.40
70550;DHT22;58101;48.658;2.328;2023-04-01T15:50:54;15.50;68.10
70550;DHT22;58101;48.658;2.328;2023-04-01T15:54:20;15.50;62.80
70550;DHT22;58101;48.658;2.328;2023-04-01T15:56:41;15.60;61.30
70550;DHT22;58101;48.658;2.328;2023-04-01T16:22:19;15.30;95.20
70550;DHT22;58101;48.658;2.328;2023-04-01T16:24:54;15.10;99.90
70550;DHT22;58101;48.658;2.328;2023-04-01T16:33:19;14.40;98.00
70550;DHT22;58101;48.658;2.328;2023-04-01T16:36:13;14.20;99.90
70550;DHT22;58101;48.658;2.328;2023-04-01T16:39:18;14.00;99.90
70550;DHT22;58101;48.658;2.328;2023-04-01T16:44:52;13.90;99.90
70550;DHT22;58101;48.658;2.328;2023-04-01T16:47:29;13.90;99.90
70550;DHT22;58101;48.658;2.328;2023-04-01T16:50:13;13.90;99.90
70550;DHT22;58101;48.658;2.328;2023-04-01T16:53:00;13.90;99.90
70550;DHT22;58101;48.658;2.328;2023-04-01T16:58:40;13.90;99.90
70550;DHT22;58101;48.658;2.328;2023-04-01T17:01:29;13.80;99.90
70550;DHT22;58101;48.658;2.328;2023-04-01T17:04:04;13.80;99.90
70550;DHT22;58101;48.658;2.328;2023-04-01T17:06:40;13.80;99.90
70550;DHT22;58101;48.658;2.328;2023-04-01T17:12:05;13.70;99.90
70550;DHT22;58101;48.658;2.328;2023-04-01T17:29:05;12.70;99.90
70550;DHT22;58101;48.658;2.328;2023-04-01T17:34:40;12.60;99.90
70550;DHT22;58101;48.658;2.328;2023-04-01T17:42:50;12.40;99.90
70550;DHT22;58101;48.658;2.328;2023-04-01T17:48:43;12.40;99.90
70550;DHT22;58101;48.658;2.328;2023-04-01T18:13:06;12.10;99.90
70550;DHT22;58101;48.658;2.328;2023-04-01T18:18:46;12.00;99.90
70550;DHT22;58101;48.658;2.328;2023-04-01T18:24:22;12.00;99.90
70550;DHT22;58101;48.658;2.328;2023-04-01T18:27:15;12.00;99.90
70550;DHT22;58101;48.658;2.328;2023-04-01T18:36:03;11.90;99.90
70550;DHT22;58101;48.658;2.328;2023-04-01T18:41:14;11.80;99.90
70550;DHT22;58101;48.658;2.328;2023-04-01T18:44:04;11.80;99.90
70550;DHT22;58101;48.658;2.328;2023-04-01T18:54:49;11.80;99.90
70550;DHT22;58101;48.658;2.328;2023-04-01T18:57:18;11.80;99.90
70550;DHT22;58101;48.658;2.328;2023-04-01T18:59:56;11.80;99.90
70550;DHT22;58101;48.658;2.328;2023-04-01T19:02:36;11.80;99.90
70550;DHT22;58101;48.658;2.328;2023-04-01T19:05:20;11.80;99.90
70550;DHT22;58101;48.658;2.328;2023-04-01T19:07:50;11.90;99.90
70550;DHT22;58101;48.658;2.328;2023-04-01T19:10:40;11.80;99.90
70550;DHT22;58101;48.658;2.328;2023-04-01T19:21:42;11.80;99.90
70550;DHT22;58101;48.658;2.328;2023-04-01T19:29:53;11.80;99.90
70550;DHT22;58101;48.658;2.328;2023-04-01T19:40:43;11.60;99.90
70550;DHT22;58101;48.658;2.328;2023-04-01T19:45:53;11.80;99.90
70550;DHT22;58101;48.658;2.328;2023-04-01T19:57:09;11.80;99.90
70550;DHT22;58101;48.658;2.328;2023-04-01T20:02:43;11.80;99.90
70550;DHT22;58101;48.658;2.328;2023-04-01T20:05:30;11.80;99.90
70550;DHT22;58101;48.658;2.328;2023-04-01T20:16:20;11.80;99.90
70550;DHT22;58101;48.658;2.328;2023-04-01T20:19:00;11.70;99.90
70550;DHT22;58101;48.658;2.328;2023-04-01T20:23:54;11.70;99.90
70550;DHT22;58101;48.658;2.328;2023-04-01T20:26:32;11.80;99.90
70550;DHT22;58101;48.658;2.328;2023-04-01T20:31:40;11.70;99.90
70550;DHT22;58101;48.658;2.328;2023-04-01T20:34:20;11.70;99.90
70550;DHT22;58101;48.658;2.328;2023-04-01T20:37:00;11.70;99.90
70550;DHT22;58101;48.658;2.328;2023-04-01T20:40:26;11.70;99.90
70550;DHT22;58101;48.658;2.328;2023-04-01T20:48:23;11.70;99.90
70550;DHT22;58101;48.658;2.328;2023-04-01T20:56:36;11.60;99.90
70550;DHT22;58101;48.658;2.328;2023-04-01T21:02:00;11.60;99.90
70550;DHT22;58101;48.658;2.328;2023-04-01T21:12:53;11.40;99.90
70550;DHT22;58101;48.658;2.328;2023-04-01T21:26:51;11.30;99.90
70550;DHT22;58101;48.658;2.328;2023-04-01T21:34:34;11.30;99.90
70550;DHT22;58101;48.658;2.328;2023-04-01T21:57:08;11.20;99.90
70550;DHT22;58101;48.658;2.328;2023-04-01T22:00:14;11.20;99.90
70550;DHT22;58101;48.658;2.328;2023-04-01T22:06:12;11.10;99.90
70550;DHT22;58101;48.658;2.328;2023-04-01T22:11:48;11.00;99.90
70550;DHT22;58101;48.658;2.328;2023-04-01T22:14:41;11.00;99.90
70550;DHT22;58101;48.658;2.328;2023-04-01T22:20:03;11.00;99.90
70550;DHT22;58101;48.658;2.328;2023-04-01T22:28:25;10.90;99.90
70550;DHT22;58101;48.658;2.328;2023-04-01T22:30:59;10.90;99.90
70550;DHT22;58101;48.658;2.328;2023-04-01T22:33:57;10.90;99.90
70550;DHT22;58101;48.658;2.328;2023-04-01T22:36:29;10.90;99.90
70550;DHT22;58101;48.658;2.328;2023-04-01T22:50:22;10.70;99.90
70550;DHT22;58101;48.658;2.328;2023-04-01T22:52:57;10.70;99.90
70550;DHT22;58101;48.658;2.328;2023-04-01T22:55:30;10.70;99.90
70550;DHT22;58101;48.658;2.328;2023-04-01T22:58:04;10.80;99.90
70550;DHT22;58101;48.658;2.328;2023-04-01T23:00:46;10.70;99.90
70550;DHT22;58101;48.658;2.328;2023-04-01T23:03:27;10.70;99.90
70550;DHT22;58101;48.658;2.328;2023-04-01T23:05:59;10.70;99.90
70550;DHT22;58101;48.658;2.328;2023-04-01T23:11:23;10.70;99.90
70550;DHT22;58101;48.658;2.328;2023-04-01T23:16:35;10.70;99.90
70550;DHT22;58101;48.658;2.328;2023-04-01T23:19:11;10.60;99.90
70550;DHT22;58101;48.658;2.328;2023-04-01T23:21:46;10.70;99.90
70550;DHT22;58101;48.658;2.328;2023-04-01T23:24:30;10.60;99.90
70550;DHT22;58101;48.658;2.328;2023-04-01T23:27:06;10.70;99.90
70550;DHT22;58101;48.658;2.328;2023-04-01T23:29:36;10.70;99.90
70550;DHT22;58101;48.658;2.328;2023-04-01T23:32:05;10.70;99.90
70550;DHT22;58101;48.658;2.328;2023-04-01T23:34:38;10.60;99.90
70550;DHT22;58101;48.658;2.328;2023-04-01T23:37:12;10.70;99.90
70550;DHT22;58101;48.658;2.328;2023-04-01T23:39:40;10.60;99.90
70550;DHT22;58101;48.658;2.328;2023-04-01T23:42:15;10.60;99.90
70550;DHT22;58101;48.658;2.328;2023-04-01T23:44:45;10.60;99.90
70550;DHT22;58101;48.658;2.328;2023-04-01T23:47:22;10.60;99.90
70550;DHT22;58101;48.658;2.328;2023-04-01T23:49:51;10.50;99.90
70550;DHT22;58101;48.658;2.328;2023-04-01T23:52:24;10.50;99.90
70550;DHT22;58101;48.658;2.328;2023-04-01T23:54:58;10.40;99.90
70550;DHT22;58101;48.658;2.328;2023-04-01T23:57:33;10.50;99.90
